ポンティアナック・スパディオ空港の過去48時間の天気

ポンティアナック・スパディオ空港 (Pontianak / Supadio)

現在時刻: 8/18 21:02 WIB (8/18 14:02 UTC) 以下の時間は現地時間です。

過去48時間のMETAR気象情報
時間 風向 風速(m/s) 視程 気温(℃) 湿度(%) 気圧(hPa) 天気現象
18 20:30 西南西 1 7000m 28 84 1009
18 20:00 静穏 0 8000m 28 84 1008
18 19:30 西南西 2 8000m 29 79 1008
18 19:00 西 3 8000m 29 79 1007
18 18:30 西 3 8000m 29 79 1007
18 18:00 西北西 2 8000m 31 70 1006
18 17:30 西南西 2 10km以上 32 67 1006
18 17:00 東北東 2 10km以上 33 53 1006
18 16:30 東北東 2 10km以上 33 53 1006
18 16:00 東北東 4 10km以上 34 50 1005
18 15:30 北北東 2 10km以上 34 50 1005
18 15:00 2 10km以上 34 50 1005
18 14:30 東北東 3 10km以上 34 50 1006
18 14:00 北北東 3 10km以上 34 50 1006
18 13:30 南東 2 10km以上 33 56 1006
18 13:00 東南東 3 10km以上 33 56 1007
18 12:30 東北東 3 10km以上 33 53 1007
18 12:00 3 10km以上 32 59 1008
18 11:30 東南東 2 10km以上 32 56 1008
18 11:00 東南東 4 10km以上 31 62 1008
18 10:30 南南東 3 10km以上 31 62 1009
18 10:00 南東 3 10km以上 30 66 1009
18 09:30 東南東 3 10km以上 29 70 1009
18 09:00 東南東 2 10km以上 28 74 1010
18 08:30 東北東 3 10km以上 28 79 1010
18 08:00 東南東 2 10km以上 27 84 1010
18 07:30 東北東 2 10km以上 26 89 1010
18 07:00 北東 2 10km以上 24 94 1009
18 06:30 2 8000m 24 94 1009
18 06:00 東北東 2 7000m 24 94 1009
18 05:30 北東 2 7000m 24 89 1008
18 05:00 東南東 2 6000m 24 89 1008
18 04:00 東南東 1 10km以上 24 94 1008
18 01:00 不定 1 10km以上 25 89 1009
18 00:30 不定 1 10km以上 24 94 1009
18 00:00 1 10km以上 24 94 1010
17 23:30 北北東 2 10km以上 25 89 1010
17 23:00 2 6000m 25 89 1010
17 22:30 東北東 2 6000m 25 89 1010
17 22:00 北北西 2 6000m 25 89 1009
17 21:30 西北西 2 6000m 25 89 1009
17 21:00 2 6000m 26 84 1009
17 20:30 南東 2 6000m 26 84 1008
17 20:00 3 7000m 26 84 1008
17 19:30 南東 2 7000m 26 84 1008
17 19:00 北西 2 7000m 26 84 1008
17 18:30 2 7000m 27 79 1008
17 18:00 北東 3 7000m 27 79 1008
17 17:30 北北東 2 8000m 29 79 1008
17 17:00 南南西 3 9000m 29 79 1007
17 16:30 南東 2 10km以上 30 75 1006
17 16:00 東南東 3 10km以上 31 66 1006
17 15:30 南東 4 10km以上 31 66 1006
17 15:00 南東 4 10km以上 32 63 1006
17 14:30 南南東 4 10km以上 33 56 1006
17 14:00 2 10km以上 33 59 1007
17 13:30 南南東 3 10km以上 33 59 1007
17 13:00 3 10km以上 32 63 1008
17 12:30 南東 3 10km以上 33 63 1009
17 12:00 南東 3 10km以上 32 67 1009
17 11:30 南南東 3 10km以上 31 70 1010
17 11:00 4 10km以上 31 70 1010
17 10:30 南東 2 10km以上 30 75 1011
17 10:00 南東 3 10km以上 29 79 1011
17 09:30 東南東 4 10km以上 28 84 1011
17 09:00 3 10km以上 28 84 1011
17 08:30 東南東 3 10km以上 28 84 1011
17 08:00 東南東 2 10km以上 26 89 1011
17 07:30 2 10km以上 26 89 1011
17 07:00 2 8000m 25 94 1011
17 06:30 東北東 2 3000m 25 94 1010
17 06:00 静穏 0 3000m 25 94 1010
17 05:30 1 4000m 25 94 1009
17 05:00 静穏 0 5000m 25 94 1009 もや
17 04:30 1 5000m 25 100 1009
17 04:00 不定 1 3900m 25 100 1009 もや
17 03:30 北東 1 4400m 25 100 1009 もや
17 03:00 北東 1 4200m 25 100 1009 もや
17 02:30 北東 2 6000m 25 94 1009
17 02:00 北東 1 10km以上 25 94 1009
17 01:30 北東 1 10km以上 25 94 1009
17 01:00 2 6000m 25 94 1010
17 00:30 東北東 1 10km以上 25 94 1010
17 00:00 東北東 2 6000m 26 89 1010
16 23:30 静穏 0 6000m 24 100 1010
16 23:00 南東 2 6000m 25 94 1010
16 22:30 1 6000m 25 94 1010
16 22:00 静穏 0 6000m 25 94 1010
16 21:30 西 1 6000m 25 94 1010
WIOO 181330Z 24002KT 7000 SCT013 28/25 Q1009 NOSIG
WIOO 181300Z 00000KT 8000 SCT013 28/25 Q1008 NOSIG
WIOO 181230Z 25004KT 8000 SCT013 29/25 Q1008 NOSIG
WIOO 181200Z 27005KT 8000 SCT013 29/25 Q1007 NOSIG
WIOO 181130Z 27006KT 8000 FEW012CB BKN013 29/25 Q1007 TEMPO FM1200 +TSRA 4000 FEW011CB BKN012
WIOO 181100Z 29004KT 8000 FEW013CB BKN014 31/25 Q1006 NOSIG
WIOO 181030Z 24004KT 9999 SCT015 32/25 Q1006 NOSIG
WIOO 181000Z 06003KT 9999 SCT015 33/22 Q1006 NOSIG
WIOO 180930Z 07003KT 9999 SCT015 33/22 Q1006 NOSIG
WIOO 180900Z 07007KT 9999 SCT015 34/22 Q1005 NOSIG
WIOO 180830Z 03003KT 9999 SCT015 34/22 Q1005 NOSIG
WIOO 180800Z 09004KT 9999 BKN014 34/22 Q1005 NOSIG
WIOO 180730Z 06005KT 9999 BKN014 34/22 Q1006 NOSIG
WIOO 180700Z 02005KT 9999 BKN014 34/22 Q1006 NOSIG
WIOO 180630Z 14004KT 9999 BKN014 33/23 Q1006 NOSIG
WIOO 180600Z 12006KT 9999 SCT015 33/23 Q1007 NOSIG
WIOO 180530Z 07005KT 9999 SCT015 33/22 Q1007 NOSIG
WIOO 180500Z 10006KT 9999 SCT015 32/23 Q1008 NOSIG
WIOO 180430Z 12004KT 9999 FEW015 32/22 Q1008 NOSIG
WIOO 180400Z 12008KT 9999 FEW015 31/23 Q1008 NOSIG
WIOO 180330Z 15005KT 9999 FEW015 31/23 Q1009 NOSIG
WIOO 180300Z 13006KT 9999 FEW015 30/23 Q1009 NOSIG
WIOO 180230Z 12006KT 9999 FEW015 29/23 Q1009 NOSIG
WIOO 180200Z 12004KT 9999 FEW015 28/23 Q1010 NOSIG
WIOO 180130Z 07006KT 9999 FEW015 28/24 Q1010 NOSIG
WIOO 180100Z 12004KT 9999 FEW015 27/24 Q1010 NOSIG
WIOO 180030Z 07004KT 9999 FEW015 26/24 Q1010 NOSIG
WIOO 180000Z 05003KT 9999 FEW015 24/23 Q1009 NOSIG
WIOO 172330Z 36003KT 8000 FEW013 24/23 Q1009 NOSIG
WIOO 172300Z 06003KT 7000 FEW012 24/23 Q1009 NOSIG
WIOO 172230Z 05003KT 7000 SCT012 24/22 Q1008
WIOO 172200Z 11003KT 6000 SCT012 24/22 Q1008 NOSIG
WIOO 172100Z AUTO 11002KT 9999 OVC150 OVC160 24/23 Q1008
WIOO 171800Z AUTO VRB01KT 9999 BKN042 OVC055 BKN240 25/23 Q1009
WIOO 171730Z AUTO VRB02KT 9999 OVC044 24/23 Q1009
WIOO 171700Z AUTO 36002KT 9999 FEW029 BKN043 OVC045 24/23 Q1010
WIOO 171630Z AUTO 02003KT 9999 SCT028 SCT035 OVC045 25/23 Q1010
WIOO 171600Z 36004KT 6000 SCT012 25/23 Q1010 NOSIG
WIOO 171530Z 07003KT 6000 SCT012 25/23 Q1010 NOSIG
WIOO 171500Z 34004KT 6000 SCT012 25/23 Q1009 NOSIG
WIOO 171430Z 30003KT 6000 SCT012 25/23 Q1009 NOSIG
WIOO 171400Z 36003KT 6000 SCT012 26/23 Q1009 NOSIG
WIOO 171330Z 14003KT 6000 SCT012 26/23 Q1008 NOSIG
WIOO 171300Z 17006KT 7000 SCT012 26/23 Q1008 NOSIG
WIOO 171230Z 13003KT 7000 BKN012 26/23 Q1008 NOSIG
WIOO 171200Z 32003KT 7000 BKN012 26/23 Q1008 NOSIG
WIOO 171130Z 01004KT 7000 BKN012 27/23 Q1008 NOSIG
WIOO 171100Z 05005KT 7000 BKN012 27/23 Q1008 NOSIG
WIOO 171030Z 03003KT 8000 SCT012 29/25 Q1008 NOSIG
WIOO 171000Z 20005KT 9000 BKN012 29/25 Q1007 NOSIG
WIOO 170930Z 13004KT 9999 BKN012 30/25 Q1006 NOSIG
WIOO 170900Z 12006KT 9999 BKN012 31/24 Q1006 NOSIG
WIOO 170830Z 14007KT 9999 BKN012 31/24 Q1006 NOSIG
WIOO 170800Z 13007KT 9999 BKN012 32/24 Q1006 NOSIG
WIOO 170730Z 15008KT 9999 BKN012 33/23 Q1006 NOSIG
WIOO 170700Z 09004KT 9999 BKN012 33/24 Q1007 NOSIG
WIOO 170630Z 15006KT 9999 BKN012 33/24 Q1007 NOSIG
WIOO 170600Z 10006KT 9999 BKN012 32/24 Q1008 NOSIG
WIOO 170530Z 13005KT 9999 BKN012 33/25 Q1009 NOSIG
WIOO 170500Z 14005KT 9999 BKN012 32/25 Q1009 NOSIG
WIOO 170430Z 15006KT 9999 BKN011 31/25 Q1010 NOSIG
WIOO 170400Z 10008KT 9999 BKN011 31/25 Q1010 NOSIG
WIOO 170330Z 13004KT 9999 BKN011 30/25 Q1011 NOSIG
WIOO 170300Z 14006KT 9999 BKN011 29/25 Q1011 NOSIG
WIOO 170230Z 11007KT 9999 BKN011 28/25 Q1011 NOSIG
WIOO 170200Z 09006KT 9999 SCT011 28/25 Q1011 NOSIG
WIOO 170130Z 12005KT 9999 FEW011 28/25 Q1011 NOSIG
WIOO 170100Z 11004KT 9999 FEW012 26/24 Q1011 NOSIG
WIOO 170030Z 08003KT 9999 FEW012 26/24 Q1011 NOSIG
WIOO 170000Z 08004KT 8000 FEW012 25/24 Q1011 NOSIG
WIOO 162330Z 07003KT 3000 FU FEW012 25/24 Q1010 NOSIG
WIOO 162300Z 00000KT 3000 FU FEW012 25/24 Q1010 NOSIG
WIOO 162230Z 09002KT 4000 FU FEW012 25/24 Q1009 NOSIG
WIOO 162200Z 00000KT 5000 BR SCT012 25/24 Q1009 NOSIG
WIOO 162130Z AUTO 01001KT 5000 BKN150 OVC160 25/25 Q1009
WIOO 162100Z AUTO VRB01KT 3900 BR BKN021 OVC160 25/25 Q1009
WIOO 162030Z AUTO 04002KT 4400 BR FEW020 SCT150 25/25 Q1009
WIOO 162000Z AUTO 04002KT 4200 BR BKN170 25/25 Q1009
WIOO 161930Z AUTO 05003KT 6000 FEW200 25/24 Q1009
WIOO 161900Z AUTO 04002KT 9999 FEW038 SCT170 25/24 Q1009
WIOO 161830Z AUTO 05002KT 9999 SCT023 BKN025 OVC200 25/24 Q1009
WIOO 161800Z 36003KT 6000 FEW013 25/24 Q1010 NOSIG
WIOO 161730Z 06002KT 9999 SCT013 25/24 Q1010 NOSIG
WIOO 161700Z 06003KT 6000 SCT013 26/24 Q1010 NOSIG
WIOO 161630Z 00000KT 6000 FEW013 24/24 Q1010 NOSIG
WIOO 161600Z 13003KT 6000 FEW013 25/24 Q1010 NOSIG
WIOO 161530Z 09002KT 6000 SCT013 25/24 Q1010 NOSIG
WIOO 161500Z 00000KT 6000 FEW013 25/24 Q1010 NOSIG
WIOO 161430Z 27002KT 6000 FEW013 25/24 Q1010 NOSIG